Time;durP1;ratioP1;P1;durP2;ratioP2;P2;SDS_P1;SDS_P2;PMS_P1;PMS_P2;Temp;Humidity;BMP_temperature;BMP_pressure;BME280_temperature;BME280_humidity;BME280_pressure;Samples;Min_cycle;Max_cycle;Signal;HPM_P1;HPM_P2
2022/09/21 00:01:19;;;;;;;1999.90;999.90;;;;;;;-144.65;100.00;64500.88;5033865;28;20029;-77
2022/09/21 00:03:45;;;;;;;1999.90;999.90;;;;;;;-144.65;100.00;64500.88;5004351;28;20025;-77
2022/09/21 00:06:19;;;;;;;1999.90;999.90;;;;;;;-144.65;100.00;64500.88;5028494;28;20052;-77
2022/09/21 00:08:46;;;;;;;1999.90;999.90;;;;;;;-144.65;100.00;64500.88;5020270;28;20050;-77
2022/09/21 00:11:16;;;;;;;1999.90;999.90;;;;;;;-144.65;100.00;64500.88;5023850;28;20528;-77
2022/09/21 00:13:45;;;;;;;1999.90;999.90;;;;;;;-144.65;100.00;64500.88;5020272;28;20037;-77
2022/09/21 00:16:11;;;;;;;1999.90;999.90;;;;;;;-144.65;100.00;64500.88;5025555;28;20765;-78
2022/09/21 00:18:37;;;;;;;1999.90;999.90;;;;;;;-144.65;100.00;64500.88;5019433;28;20597;-78
2022/09/21 00:21:07;;;;;;;1999.90;999.90;;;;;;;-144.65;100.00;64500.88;5016264;28;20116;-78
2022/09/21 00:23:34;;;;;;;1999.90;999.90;;;;;;;-144.65;100.00;64500.88;5016764;28;20052;-77
2022/09/21 00:26:04;;;;;;;1999.90;999.90;;;;;;;-144.65;100.00;64500.88;5016983;28;20025;-78
2022/09/21 00:28:29;;;;;;;1999.90;999.90;;;;;;;-144.65;100.00;64500.88;5016854;28;20097;-78
2022/09/21 00:31:01;;;;;;;1999.90;999.90;;;;;;;-144.65;100.00;64500.88;5016249;28;20095;-78
2022/09/21 00:33:26;;;;;;;1999.90;999.90;;;;;;;-144.65;100.00;64500.88;5017257;28;20517;-78
2022/09/21 00:35:51;;;;;;;1999.90;999.90;;;;;;;-144.65;100.00;64500.88;5017424;28;20108;-77
2022/09/21 00:38:17;;;;;;;1999.90;999.90;;;;;;;-144.65;100.00;64500.88;5016695;28;20034;-77
2022/09/21 00:40:42;;;;;;;1999.90;999.90;;;;;;;-144.65;100.00;64500.88;5016370;28;20029;-77
2022/09/21 00:43:13;;;;;;;1999.90;999.90;;;;;;;-144.65;100.00;64500.88;5016478;28;20030;-77
2022/09/21 00:45:38;;;;;;;1999.90;999.90;;;;;;;-144.65;100.00;64500.88;5015958;28;20072;-77
2022/09/21 00:48:04;;;;;;;1999.90;999.90;;;;;;;-144.65;100.00;64500.88;5016372;28;20538;-78
2022/09/21 00:50:29;;;;;;;1999.90;999.90;;;;;;;-144.65;100.00;64500.88;5016408;28;20034;-77
2022/09/21 00:52:57;;;;;;;1999.90;999.90;;;;;;;-144.65;100.00;64500.88;5015721;28;20018;-77
2022/09/21 00:55:30;;;;;;;1999.90;999.90;;;;;;;-144.65;100.00;64500.88;5015154;28;20072;-78
2022/09/21 00:58:01;;;;;;;1999.90;999.90;;;;;;;-144.65;100.00;64500.88;5015691;28;20020;-78
2022/09/21 01:00:27;;;;;;;1999.90;999.90;;;;;;;-144.65;100.00;64500.88;5016524;28;20037;-77
2022/09/21 01:03:00;;;;;;;1999.90;999.90;;;;;;;-144.65;100.00;64500.88;5016128;28;20060;-78
2022/09/21 01:05:26;;;;;;;1999.90;999.90;;;;;;;-144.65;100.00;64500.88;5015464;28;20493;-78
2022/09/21 01:07:53;;;;;;;1999.90;999.90;;;;;;;-144.65;100.00;64500.88;5015859;28;20075;-77
2022/09/21 01:10:19;;;;;;;1999.90;999.90;;;;;;;-144.65;100.00;64500.88;5016100;28;20042;-77
2022/09/21 01:13:09;;;;;;;1999.90;999.90;;;;;;;-144.65;100.00;64500.88;5017444;28;20044;-78
2022/09/21 01:15:39;;;;;;;1999.90;999.90;;;;;;;-144.65;100.00;64500.88;5015298;28;20037;-78
2022/09/21 01:18:16;;;;;;;1999.90;999.90;;;;;;;-144.65;100.00;64500.88;5015266;28;20026;-78
2022/09/21 01:21:00;;;;;;;1999.90;999.90;;;;;;;-144.65;100.00;64500.88;5015315;28;20036;-77
2022/09/21 01:23:38;;;;;;;1999.90;999.90;;;;;;;-144.65;100.00;64500.88;5015121;28;20030;-77
2022/09/21 01:26:22;;;;;;;1999.90;999.90;;;;;;;-144.65;100.00;64500.88;4998283;28;20034;-78
2022/09/21 01:29:16;;;;;;;1999.90;999.90;;;;;;;-144.65;100.00;64500.88;5015164;28;20030;-77
2022/09/21 01:32:00;;;;;;;1999.90;999.90;;;;;;;-144.65;100.00;64500.88;5016931;28;20072;-77
2022/09/21 01:35:02;;;;;;;1999.90;999.90;;;;;;;-144.65;100.00;64500.88;5019556;28;20038;-78
2022/09/21 01:37:37;;;;;;;1999.90;999.90;;;;;;;-144.65;100.00;64500.88;5001253;28;20125;-77
2022/09/21 01:40:06;;;;;;;;;;;;;;;-144.65;100.00;64500.88;5001355;28;20037;-77
2022/09/21 01:42:34;;;;;;;1999.90;999.90;;;;;;;-144.65;100.00;64500.88;5018406;28;19913;-77
2022/09/21 01:45:05;;;;;;;1999.90;999.90;;;;;;;-144.65;100.00;64500.88;5018321;28;20394;-77
2022/09/21 01:47:33;;;;;;;1999.90;999.90;;;;;;;-144.65;100.00;64500.88;5018992;28;20609;-77
2022/09/21 01:50:01;;;;;;;1999.90;999.90;;;;;;;-144.65;100.00;64500.88;5018210;28;20030;-77
2022/09/21 01:52:36;;;;;;;1999.90;999.90;;;;;;;-144.65;100.00;64500.88;5017937;28;20116;-77
2022/09/21 01:55:31;;;;;;;1999.90;999.90;;;;;;;-144.65;100.00;64500.88;5018475;28;20536;-78
2022/09/21 01:58:22;;;;;;;1999.90;999.90;;;;;;;-144.65;100.00;64500.88;5015222;28;20030;-78
2022/09/21 02:00:53;;;;;;;1999.90;999.90;;;;;;;-144.65;100.00;64500.88;5019331;28;20372;-77
2022/09/21 02:03:29;;;;;;;1999.90;999.90;;;;;;;-144.65;100.00;64500.88;5018482;28;20025;-77
2022/09/21 02:05:56;;;;;;;1999.90;999.90;;;;;;;-144.65;100.00;64500.88;5015193;28;20026;-77
2022/09/21 02:08:25;;;;;;;1999.90;999.90;;;;;;;-144.65;100.00;64500.88;4999180;28;20029;-77
2022/09/21 02:10:52;;;;;;;1999.90;999.90;;;;;;;-144.65;100.00;64500.88;4996376;28;20479;-77
2022/09/21 02:13:24;;;;;;;1999.90;999.90;;;;;;;-144.65;100.00;64500.88;5008075;28;20034;-77
2022/09/21 02:16:07;;;;;;;1999.90;999.90;;;;;;;-144.65;100.00;64500.88;5016560;28;20040;-77
2022/09/21 02:18:57;;;;;;;1999.90;999.90;;;;;;;-144.65;100.00;64500.88;5014906;28;20141;-77
2022/09/21 02:21:31;;;;;;;1999.90;999.90;;;;;;;-144.65;100.00;64500.88;5014846;28;20034;-76
2022/09/21 02:24:02;;;;;;;1999.90;999.90;;;;;;;-144.65;100.00;64500.88;5015403;28;20034;-77
2022/09/21 02:26:35;;;;;;;1999.90;999.90;;;;;;;-144.65;100.00;64500.88;5015527;28;20026;-77
2022/09/21 02:29:32;;;;;;;1999.90;999.90;;;;;;;-144.65;100.00;64500.88;5016152;28;20050;-76
2022/09/21 02:32:10;;;;;;;;;;;;;;;-144.65;100.00;64500.88;4998191;28;20026;-77
2022/09/21 02:34:44;;;;;;;1999.90;999.90;;;;;;;-144.65;100.00;64500.88;4998207;28;20556;-77
2022/09/21 02:37:23;;;;;;;1999.90;999.90;;;;;;;-144.65;100.00;64500.88;5014849;28;20041;-77
2022/09/21 02:40:16;;;;;;;1999.90;999.90;;;;;;;-144.65;100.00;64500.88;5014916;28;20038;-76
2022/09/21 02:42:47;;;;;;;1999.90;999.90;;;;;;;-144.65;100.00;64500.88;5014346;28;20033;-77
2022/09/21 02:45:27;;;;;;;1999.90;999.90;;;;;;;-144.65;100.00;64500.88;5015095;28;20037;-76
2022/09/21 02:48:04;;;;;;;1999.90;999.90;;;;;;;-144.65;100.00;64500.88;5014569;28;20036;-77
2022/09/21 02:50:36;;;;;;;1999.90;999.90;;;;;;;-144.65;100.00;64500.88;5014893;28;20081;-76
2022/09/21 02:53:04;;;;;;;1999.90;999.90;;;;;;;-144.65;100.00;64500.88;5014444;28;20493;-77
2022/09/21 02:55:32;;;;;;;1999.90;999.90;;;;;;;-144.65;100.00;64500.88;5014636;28;20022;-75
2022/09/21 02:58:00;;;;;;;1999.90;999.90;;;;;;;-144.65;100.00;64500.88;5014489;28;20014;-76
2022/09/21 03:00:26;;;;;;;1999.90;999.90;;;;;;;-144.65;100.00;64500.88;5014772;28;20034;-76
2022/09/21 03:02:51;;;;;;;1999.90;999.90;;;;;;;-144.65;100.00;64500.88;5014613;28;20026;-76
2022/09/21 03:05:16;;;;;;;1999.90;999.90;;;;;;;-144.65;100.00;64500.88;5015408;28;20029;-76
2022/09/21 03:07:42;;;;;;;1999.90;999.90;;;;;;;-144.65;100.00;64500.88;4996815;28;20125;-77
2022/09/21 03:10:08;;;;;;;1999.90;999.90;;;;;;;-144.65;100.00;64500.88;5013926;28;20038;-76
2022/09/21 03:12:33;;;;;;;1999.90;999.90;;;;;;;-144.65;100.00;64500.88;5014476;28;20037;-76
2022/09/21 03:14:59;;;;;;;1999.90;999.90;;;;;;;-144.65;100.00;64500.88;5014456;28;20029;-76
2022/09/21 03:17:24;;;;;;;1999.90;999.90;;;;;;;-144.65;100.00;64500.88;5014575;28;20030;-77
2022/09/21 03:19:51;;;;;;;1999.90;999.90;;;;;;;-144.65;100.00;64500.88;5015325;28;20483;-77
2022/09/21 03:22:16;;;;;;;1999.90;999.90;;;;;;;-144.65;100.00;64500.88;5015651;28;20037;-77
2022/09/21 03:24:45;;;;;;;1999.90;999.90;;;;;;;-144.65;100.00;64500.88;5015225;28;20026;-76
2022/09/21 03:27:11;;;;;;;1999.90;999.90;;;;;;;-144.65;100.00;64500.88;5015169;28;20034;-76
2022/09/21 03:29:36;;;;;;;1999.90;999.90;;;;;;;-144.65;100.00;64500.88;5015702;28;20018;-77
2022/09/21 03:32:02;;;;;;;1999.90;999.90;;;;;;;-144.65;100.00;64500.88;5016249;28;20062;-77
2022/09/21 03:34:27;;;;;;;1999.90;999.90;;;;;;;-144.65;100.00;64500.88;5015351;28;20478;-77
2022/09/21 03:36:53;;;;;;;1999.90;999.90;;;;;;;-144.65;100.00;64500.88;4998068;28;20022;-77
2022/09/21 03:39:18;;;;;;;1999.90;999.90;;;;;;;-144.65;100.00;64500.88;5015186;28;20021;-76
2022/09/21 03:41:44;;;;;;;1999.90;999.90;;;;;;;-144.65;100.00;64500.88;5015228;28;20026;-77
2022/09/21 03:44:09;;;;;;;1999.90;999.90;;;;;;;-144.65;100.00;64500.88;5014544;28;20108;-77
2022/09/21 03:46:34;;;;;;;1999.90;999.90;;;;;;;-144.65;100.00;64500.88;5015186;28;20395;-77
2022/09/21 03:49:01;;;;;;;1999.90;999.90;;;;;;;-144.65;100.00;64500.88;5014783;28;20041;-77
2022/09/21 03:51:28;;;;;;;1999.90;999.90;;;;;;;-144.65;100.00;64500.88;4997614;28;20482;-76
2022/09/21 03:53:54;;;;;;;1999.90;999.90;;;;;;;-144.65;100.00;64500.88;5014830;28;20149;-77
2022/09/21 03:56:19;;;;;;;1999.90;999.90;;;;;;;-144.65;100.00;64500.88;5015200;28;20387;-76
2022/09/21 03:58:45;;;;;;;1999.90;999.90;;;;;;;-144.65;100.00;64500.88;5017073;28;20030;-77
2022/09/21 04:01:10;;;;;;;1999.90;999.90;;;;;;;-144.65;100.00;64500.88;5015643;28;20041;-76
2022/09/21 04:03:37;;;;;;;1999.90;999.90;;;;;;;-144.65;100.00;64500.88;5015179;28;20034;-76
2022/09/21 04:06:08;;;;;;;1999.90;999.90;;;;;;;-144.65;100.00;64500.88;5016397;28;20090;-77
2022/09/21 04:08:34;;;;;;;1999.90;999.90;;;;;;;-144.65;100.00;64500.88;5021717;28;20533;-76
2022/09/21 04:10:59;;;;;;;1999.90;999.90;;;;;;;-144.65;100.00;64500.88;5022286;28;20030;-77
2022/09/21 04:13:24;;;;;;;1999.90;999.90;;;;;;;-144.65;100.00;64500.88;5022134;28;20033;-77
2022/09/21 04:15:50;;;;;;;1999.90;999.90;;;;;;;-144.65;100.00;64500.88;5022275;28;20029;-77
2022/09/21 04:18:15;;;;;;;1999.90;999.90;;;;;;;-144.65;100.00;64500.88;5022397;28;20026;-78
2022/09/21 04:20:40;;;;;;;1999.90;999.90;;;;;;;-144.65;100.00;64500.88;5019960;28;20029;-77
2022/09/21 04:23:06;;;;;;;1999.90;999.90;;;;;;;-144.65;100.00;64500.88;5014387;28;20113;-76
2022/09/21 04:25:32;;;;;;;1999.90;999.90;;;;;;;-144.65;100.00;64500.88;5013345;28;20482;-77
2022/09/21 04:27:57;;;;;;;1999.90;999.90;;;;;;;-144.65;100.00;64500.88;5013141;28;20069;-77
2022/09/21 04:30:23;;;;;;;1999.90;999.90;;;;;;;-144.65;100.00;64500.88;5015296;28;20030;-75
2022/09/21 04:32:48;;;;;;;1999.90;999.90;;;;;;;-144.65;100.00;64500.88;5015788;28;20514;-76
2022/09/21 04:35:13;;;;;;;1999.90;999.90;;;;;;;-144.65;100.00;64500.88;5022527;28;20036;-76
2022/09/21 04:37:40;;;;;;;1999.90;999.90;;;;;;;-144.65;100.00;64500.88;5026697;28;20030;-76
2022/09/21 04:40:06;;;;;;;1999.90;999.90;;;;;;;-144.65;100.00;64500.88;5024552;28;20036;-76
2022/09/21 04:42:32;;;;;;;1999.90;999.90;;;;;;;-144.65;100.00;64500.88;4999847;28;20033;-77
2022/09/21 04:44:58;;;;;;;1999.90;999.90;;;;;;;-144.65;100.00;64500.88;5013720;28;20107;-75
2022/09/21 04:47:24;;;;;;;1999.90;999.90;;;;;;;-144.65;100.00;64500.88;5013033;28;20021;-77
2022/09/21 04:49:51;;;;;;;1999.90;999.90;;;;;;;-144.65;100.00;64500.88;5012405;28;20124;-76
2022/09/21 04:52:16;;;;;;;1999.90;999.90;;;;;;;-144.65;100.00;64500.88;5019813;28;20056;-79
2022/09/21 04:54:41;;;;;;;1999.90;999.90;;;;;;;-144.65;100.00;64500.88;5028944;28;20030;-76
2022/09/21 04:57:07;;;;;;;1999.90;999.90;;;;;;;-144.65;100.00;64500.88;5022886;28;20030;-76
2022/09/21 04:59:32;;;;;;;1999.90;999.90;;;;;;;-144.65;100.00;64500.88;5013785;28;20029;-76
2022/09/21 05:01:57;;;;;;;1999.90;999.90;;;;;;;-144.65;100.00;64500.88;5022210;28;20050;-76
2022/09/21 05:04:22;;;;;;;1999.90;999.90;;;;;;;-144.65;100.00;64500.88;5026542;28;20088;-77
2022/09/21 05:06:48;;;;;;;1999.90;999.90;;;;;;;-144.65;100.00;64500.88;5028011;28;20045;-78
2022/09/21 05:11:57;;;;;;;1999.90;999.90;;;;;;;-144.65;100.00;64500.88;5027285;28;20048;-76
2022/09/21 05:14:22;;;;;;;1999.90;999.90;;;;;;;-144.65;100.00;64500.88;5029452;28;20025;-77
2022/09/21 05:16:48;;;;;;;1999.90;999.90;;;;;;;-144.65;100.00;64500.88;5028397;28;20457;-77
2022/09/21 05:19:14;;;;;;;1999.90;999.90;;;;;;;-144.65;100.00;64500.88;5025553;28;20540;-77
2022/09/21 05:21:40;;;;;;;1999.90;999.90;;;;;;;-144.65;100.00;64500.88;5027006;28;20030;-76
2022/09/21 05:24:05;;;;;;;1999.90;999.90;;;;;;;-144.65;100.00;64500.88;5032021;28;20414;-76
2022/09/21 05:26:30;;;;;;;1999.90;999.90;;;;;;;-144.65;100.00;64500.88;5037072;28;20026;-76
2022/09/21 05:28:56;;;;;;;1999.90;999.90;;;;;;;-144.65;100.00;64500.88;5031718;28;20026;-77
2022/09/21 05:31:38;;;;;;;1999.90;999.90;;;;;;;-144.65;100.00;64500.88;5029944;28;20025;-76
2022/09/21 05:34:22;;;;;;;1999.90;999.90;;;;;;;-144.65;100.00;64500.88;5025822;28;20034;-78
2022/09/21 05:36:57;;;;;;;1999.90;999.90;;;;;;;-144.65;100.00;64500.88;5025521;28;20033;-76
2022/09/21 05:39:23;;;;;;;;;;;;;;;-144.65;100.00;64500.88;5036608;28;20044;-77
2022/09/21 05:41:48;;;;;;;;;;;;;;;-144.65;100.00;64500.88;5040972;28;20476;-77
2022/09/21 05:44:14;;;;;;;1999.90;999.90;;;;;;;-144.65;100.00;64500.88;5042241;28;20271;-76
2022/09/21 05:46:50;;;;;;;1999.90;999.90;;;;;;;-144.65;100.00;64500.88;5042765;28;20018;-76
2022/09/21 05:49:20;;;;;;;1999.90;999.90;;;;;;;-144.65;100.00;64500.88;5044476;28;20037;-79
2022/09/21 05:52:06;;;;;;;1999.90;999.90;;;;;;;-144.65;100.00;64500.88;5027966;28;20060;-76
2022/09/21 05:54:44;;;;;;;1999.90;999.90;;;;;;;-144.65;100.00;64500.88;5043997;28;20029;-77
2022/09/21 05:57:27;;;;;;;1999.90;999.90;;;;;;;-144.65;100.00;64500.88;5045502;28;20033;-77
2022/09/21 06:00:14;;;;;;;1999.90;999.90;;;;;;;-144.65;100.00;64500.88;5044238;28;20036;-79
2022/09/21 06:02:40;;;;;;;1999.90;999.90;;;;;;;-144.65;100.00;64500.88;5043842;28;20029;-78
2022/09/21 06:05:10;;;;;;;1999.90;999.90;;;;;;;-144.65;100.00;64500.88;5029130;28;20120;-78
2022/09/21 06:07:35;;;;;;;1999.90;999.90;;;;;;;-144.65;100.00;64500.88;5024600;28;20068;-76
2022/09/21 06:10:01;;;;;;;1999.90;999.90;;;;;;;-144.65;100.00;64500.88;5023314;28;20104;-77
2022/09/21 06:12:26;;;;;;;1999.90;999.90;;;;;;;-144.65;100.00;64500.88;5022121;28;20129;-77
2022/09/21 06:14:51;;;;;;;1999.90;999.90;;;;;;;-144.65;100.00;64500.88;5021674;28;20105;-77
2022/09/21 06:17:17;;;;;;;1999.90;999.90;;;;;;;-144.65;100.00;64500.88;5020294;28;20018;-77
2022/09/21 06:19:42;;;;;;;1999.90;999.90;;;;;;;-144.65;100.00;64500.88;5017788;28;20049;-77
2022/09/21 06:22:07;;;;;;;1999.90;999.90;;;;;;;-144.65;100.00;64500.88;5019663;28;20041;-78
2022/09/21 06:24:32;;;;;;;1999.90;999.90;;;;;;;-144.65;100.00;64500.88;5019316;28;20064;-77
2022/09/21 06:26:58;;;;;;;1999.90;999.90;;;;;;;-144.65;100.00;64500.88;5020394;28;20029;-78
2022/09/21 06:29:23;;;;;;;1999.90;999.90;;;;;;;-144.65;100.00;64500.88;5003606;28;20037;-76
2022/09/21 06:31:50;;;;;;;1999.90;999.90;;;;;;;-144.65;100.00;64500.88;5018709;28;20037;-77
2022/09/21 06:34:15;;;;;;;1999.90;999.90;;;;;;;-144.65;100.00;64500.88;5001582;28;20040;-77
2022/09/21 06:36:41;;;;;;;1999.90;999.90;;;;;;;-144.65;100.00;64500.88;5016263;28;20022;-77
2022/09/21 06:39:06;;;;;;;1999.90;999.90;;;;;;;-144.65;100.00;64500.88;5018750;28;20082;-77
2022/09/21 06:41:31;;;;;;;1999.90;999.90;;;;;;;-144.65;100.00;64500.88;5020008;28;20060;-78
2022/09/21 06:43:56;;;;;;;1999.90;999.90;;;;;;;-144.65;100.00;64500.88;5001158;28;20030;-78
2022/09/21 06:46:22;;;;;;;1999.90;999.90;;;;;;;-144.65;100.00;64500.88;5019341;28;20026;-78
2022/09/21 06:48:48;;;;;;;1999.90;999.90;;;;;;;-144.65;100.00;64500.88;5022600;28;20617;-77
2022/09/21 06:51:14;;;;;;;1999.90;999.90;;;;;;;-144.65;100.00;64500.88;5019547;28;20033;-75
2022/09/21 06:53:39;;;;;;;1999.90;999.90;;;;;;;-144.65;100.00;64500.88;5016787;28;20049;-77
2022/09/21 06:56:07;;;;;;;1999.90;999.90;;;;;;;-144.65;100.00;64500.88;4999022;28;20038;-77
2022/09/21 06:58:33;;;;;;;1999.90;999.90;;;;;;;-144.65;100.00;64500.88;5015996;28;20407;-77
2022/09/21 07:01:10;;;;;;;1999.90;999.90;;;;;;;-144.65;100.00;64500.88;5016675;28;20034;-77
2022/09/21 07:03:36;;;;;;;1999.90;999.90;;;;;;;-144.65;100.00;64500.88;4997558;28;20030;-77
2022/09/21 07:06:02;;;;;;;1999.90;999.90;;;;;;;-144.65;100.00;64500.88;5016359;28;20419;-77
2022/09/21 07:08:28;;;;;;;1999.90;999.90;;;;;;;-144.65;100.00;64500.88;5016054;28;20056;-76
2022/09/21 07:10:57;;;;;;;1999.90;999.90;;;;;;;-144.65;100.00;64500.88;5016463;28;20029;-77
2022/09/21 07:13:22;;;;;;;1999.90;999.90;;;;;;;-144.65;100.00;64500.88;5017057;28;20026;-77
2022/09/21 07:15:47;;;;;;;1999.90;999.90;;;;;;;-144.65;100.00;64500.88;5016180;28;20486;-76
2022/09/21 07:18:13;;;;;;;1999.90;999.90;;;;;;;-144.65;100.00;64500.88;5017281;28;20033;-77
2022/09/21 07:20:40;;;;;;;1999.90;999.90;;;;;;;-144.65;100.00;64500.88;5017865;28;20129;-76
2022/09/21 07:23:14;;;;;;;1999.90;999.90;;;;;;;-144.65;100.00;64500.88;5017951;28;20026;-77
2022/09/21 07:25:40;;;;;;;1999.90;999.90;;;;;;;-144.65;100.00;64500.88;5018173;28;20030;-78
2022/09/21 07:28:06;;;;;;;1999.90;999.90;;;;;;;-144.65;100.00;64500.88;5017723;28;20033;-78
2022/09/21 07:30:31;;;;;;;1999.90;999.90;;;;;;;-144.65;100.00;64500.88;5019489;28;21037;-78
2022/09/21 07:32:57;;;;;;;1999.90;999.90;;;;;;;-144.65;100.00;64500.88;5018009;28;20026;-78
2022/09/21 07:35:23;;;;;;;1999.90;999.90;;;;;;;-144.65;100.00;64500.88;5020230;28;20026;-78
2022/09/21 07:37:48;;;;;;;1999.90;999.90;;;;;;;-144.65;100.00;64500.88;5018311;28;20113;-78
2022/09/21 07:40:13;;;;;;;1999.90;999.90;;;;;;;-144.65;100.00;64500.88;5018405;28;20385;-78
2022/09/21 07:42:39;;;;;;;1999.90;999.90;;;;;;;-144.65;100.00;64500.88;5018595;28;20390;-78
2022/09/21 07:45:05;;;;;;;1999.90;999.90;;;;;;;-144.65;100.00;64500.88;5018693;28;20029;-77
2022/09/21 07:47:30;;;;;;;1999.90;999.90;;;;;;;-144.65;100.00;64500.88;5018429;28;20042;-78
2022/09/21 07:49:56;;;;;;;1999.90;999.90;;;;;;;-144.65;100.00;64500.88;5001768;28;20018;-78
2022/09/21 07:52:21;;;;;;;1999.90;999.90;;;;;;;-144.65;100.00;64500.88;5020799;28;20049;-78
2022/09/21 07:54:47;;;;;;;1999.90;999.90;;;;;;;-144.65;100.00;64500.88;5019975;28;20526;-77
2022/09/21 07:59:57;;;;;;;1999.90;999.90;;;;;;;-144.65;100.00;64500.88;5019399;28;20829;-78
2022/09/21 08:02:23;;;;;;;1999.90;999.90;;;;;;;-144.65;100.00;64500.88;5018068;28;20026;-79
2022/09/21 08:04:48;;;;;;;1999.90;999.90;;;;;;;-144.65;100.00;64500.88;5020794;28;20022;-79
2022/09/21 08:07:13;;;;;;;1999.90;999.90;;;;;;;-144.65;100.00;64500.88;5013924;28;20034;-74
2022/09/21 08:09:40;;;;;;;1999.90;999.90;;;;;;;-144.65;100.00;64500.88;5008238;28;20069;-76
2022/09/21 08:12:06;;;;;;;1999.90;999.90;;;;;;;-144.65;100.00;64500.88;5012065;28;20049;-78
2022/09/21 08:14:32;;;;;;;1999.90;999.90;;;;;;;-144.65;100.00;64500.88;5000475;28;20086;-75
2022/09/21 08:16:57;;;;;;;1999.90;999.90;;;;;;;-144.65;100.00;64500.88;4991797;28;20042;-77
2022/09/21 08:19:24;;;;;;;1999.90;999.90;;;;;;;-144.65;100.00;64500.88;4990659;28;20019;-74
2022/09/21 08:21:50;;;;;;;1999.90;999.90;;;;;;;-144.65;100.00;64500.88;4990664;28;20038;-75
2022/09/21 08:24:15;;;;;;;1999.90;999.90;;;;;;;-144.65;100.00;64500.88;4973244;28;20077;-75
2022/09/21 08:26:41;;;;;;;1999.90;999.90;;;;;;;-144.65;100.00;64500.88;5002106;28;20026;-75
2022/09/21 08:29:07;;;;;;;1999.90;999.90;;;;;;;-144.65;100.00;64500.88;5010717;28;20065;-75
2022/09/21 08:31:32;;;;;;;1999.90;999.90;;;;;;;-144.65;100.00;64500.88;5010111;28;20464;-78
2022/09/21 08:33:58;;;;;;;1999.90;999.90;;;;;;;-144.65;100.00;64500.88;5010208;28;20029;-74
2022/09/21 08:36:24;;;;;;;1999.90;999.90;;;;;;;-144.65;100.00;64500.88;5010286;28;20028;-75
2022/09/21 08:38:49;;;;;;;1999.90;999.90;;;;;;;-144.65;100.00;64500.88;4992354;28;20021;-76
2022/09/21 08:41:21;;;;;;;1999.90;999.90;;;;;;;-144.65;100.00;64500.88;5008606;28;20397;-75
2022/09/21 08:43:58;;;;;;;1999.90;999.90;;;;;;;-144.65;100.00;64500.88;5020206;28;20046;-92
2022/09/21 08:46:28;;;;;;;1999.90;999.90;;;;;;;-144.65;100.00;64500.88;5036103;28;20041;-87
2022/09/21 08:49:16;;;;;;;1999.90;999.90;;;;;;;-144.65;100.00;64500.88;5037205;28;20032;-92
2022/09/21 08:52:02;;;;;;;1999.90;999.90;;;;;;;-144.65;100.00;64500.88;5037114;28;20026;-90
2022/09/21 08:54:42;;;;;;;1999.90;999.90;;;;;;;-144.65;100.00;64500.88;5036558;28;20030;-90
2022/09/21 08:57:12;;;;;;;1999.90;999.90;;;;;;;-144.65;100.00;64500.88;5025688;28;20036;-95
2022/09/21 08:59:41;;;;;;;1999.90;999.90;;;;;;;-144.65;100.00;64500.88;5022236;28;20025;-95
2022/09/21 09:02:30;;;;;;;1999.90;999.90;;;;;;;-144.65;100.00;64500.88;5041210;28;20375;-95
2022/09/21 09:05:14;;;;;;;1999.90;999.90;;;;;;;-144.65;100.00;64500.88;5024617;28;20036;-93
2022/09/21 09:08:10;;;;;;;1999.90;999.90;;;;;;;-144.65;100.00;64500.88;5024449;28;20034;-94
2022/09/21 09:10:39;;;;;;;1999.90;999.90;;;;;;;-144.65;100.00;64500.88;5024206;28;20498;-95
2022/09/21 09:13:26;;;;;;;1999.90;999.90;;;;;;;-144.65;100.00;64500.88;5031407;28;20040;-94
2022/09/21 09:16:05;;;;;;;1999.90;999.90;;;;;;;-144.65;100.00;64500.88;5019374;28;20034;-90
2022/09/21 09:18:48;;;;;;;1999.90;999.90;;;;;;;-144.65;100.00;64500.88;5025365;28;20064;-92
2022/09/21 09:21:28;;;;;;;1999.90;999.90;;;;;;;-144.65;100.00;64500.88;5016283;28;20040;-84
2022/09/21 09:23:59;;;;;;;1999.90;999.90;;;;;;;-144.65;100.00;64500.88;5018877;28;20033;-79
2022/09/21 09:26:31;;;;;;;1999.90;999.90;;;;;;;-144.65;100.00;64500.88;5022850;28;20016;-77
2022/09/21 09:29:16;;;;;;;1999.90;999.90;;;;;;;-144.65;100.00;64500.88;5025688;28;20025;-79
2022/09/21 09:31:41;;;;;;;1999.90;999.90;;;;;;;-144.65;100.00;64500.88;5020214;28;20025;-81
2022/09/21 09:34:34;;;;;;;1999.90;999.90;;;;;;;-144.65;100.00;64500.88;5025717;28;20101;-78
2022/09/21 09:37:16;;;;;;;1999.90;999.90;;;;;;;-144.65;100.00;64500.88;5031758;28;20037;-79
2022/09/21 09:39:47;;;;;;;1999.90;999.90;;;;;;;-144.65;100.00;64500.88;5028934;28;20028;-78
2022/09/21 09:42:20;;;;;;;1999.90;999.90;;;;;;;-144.65;100.00;64500.88;5032259;28;20030;-78
2022/09/21 09:45:12;;;;;;;1999.90;999.90;;;;;;;-144.65;100.00;64500.88;5025444;28;20105;-78
2022/09/21 09:48:11;;;;;;;1999.90;999.90;;;;;;;-144.65;100.00;64500.88;5004723;28;20494;-78
2022/09/21 09:50:38;;;;;;;1999.90;999.90;;;;;;;-144.65;100.00;64500.88;5022937;28;20150;-78
2022/09/21 09:53:10;;;;;;;1999.90;999.90;;;;;;;-144.65;100.00;64500.88;5017341;28;20061;-78
2022/09/21 09:55:41;;;;;;;1999.90;999.90;;;;;;;-144.65;100.00;64500.88;5023463;28;20026;-77
2022/09/21 09:58:18;;;;;;;1999.90;999.90;;;;;;;-144.65;100.00;64500.88;5026993;28;20026;-78
2022/09/21 10:00:46;;;;;;;1999.90;999.90;;;;;;;-144.65;100.00;64500.88;5025447;28;20501;-76
2022/09/21 10:03:20;;;;;;;1999.90;999.90;;;;;;;-144.65;100.00;64500.88;5024820;28;20030;-78
2022/09/21 10:05:46;;;;;;;1999.90;999.90;;;;;;;-144.65;100.00;64500.88;5023984;28;20666;-77
2022/09/21 10:08:42;;;;;;;1999.90;999.90;;;;;;;-144.65;100.00;64500.88;5027016;28;20103;-79
2022/09/21 10:11:12;;;;;;;1999.90;999.90;;;;;;;-144.65;100.00;64500.88;5018648;28;20047;-78
2022/09/21 10:13:40;;;;;;;1999.90;999.90;;;;;;;-144.65;100.00;64500.88;5023933;28;20028;-77
2022/09/21 10:16:23;;;;;;;1999.90;999.90;;;;;;;-144.65;100.00;64500.88;5027376;28;20026;-78
2022/09/21 10:19:00;;;;;;;1999.90;999.90;;;;;;;-144.65;100.00;64500.88;5027430;28;20211;-79
2022/09/21 10:21:38;;;;;;;1999.90;999.90;;;;;;;-144.65;100.00;64500.88;5027100;28;20463;-79
2022/09/21 10:24:06;;;;;;;1999.90;999.90;;;;;;;-144.65;100.00;64500.88;5025491;28;20021;-77
2022/09/21 10:26:45;;;;;;;1999.90;999.90;;;;;;;-144.65;100.00;64500.88;5025189;28;20113;-78
2022/09/21 10:29:24;;;;;;;1999.90;999.90;;;;;;;-144.65;100.00;64500.88;5024455;28;20112;-78
2022/09/21 10:31:59;;;;;;;1999.90;999.90;;;;;;;-144.65;100.00;64500.88;5007097;28;20029;-77
2022/09/21 10:34:30;;;;;;;1999.90;999.90;;;;;;;-144.65;100.00;64500.88;5025039;28;20048;-79
2022/09/21 10:37:02;;;;;;;1999.90;999.90;;;;;;;-144.65;100.00;64500.88;5023330;28;20056;-78
2022/09/21 10:39:29;;;;;;;1999.90;999.90;;;;;;;-144.65;100.00;64500.88;5028007;28;20064;-77
2022/09/21 10:42:02;;;;;;;1999.90;999.90;;;;;;;-144.65;100.00;64500.88;5021392;28;20037;-77
2022/09/21 10:45:05;;;;;;;1999.90;999.90;;;;;;;-144.65;100.00;64500.88;5022269;28;20026;-79
2022/09/21 10:47:37;;;;;;;1999.90;999.90;;;;;;;-144.65;100.00;64500.88;4992027;28;20076;-77
2022/09/21 10:50:18;;;;;;;1999.90;999.90;;;;;;;-144.65;100.00;64500.88;5022233;28;20014;-82
2022/09/21 10:52:44;;;;;;;1999.90;999.90;;;;;;;-144.65;100.00;64500.88;5021220;28;20025;-76
2022/09/21 10:55:18;;;;;;;1999.90;999.90;;;;;;;-144.65;100.00;64500.88;5020122;28;20030;-75